Oak Harbor, Ohio
Current Conditions -  °F | °C
As of 4:13 PM on Sunday 23 Nov 2014 (Local Time) from KPCW Reporting Station
Clear Clear  
Wind Chill: 54°   Ceiling: Unl
Heat Index: 54°   Visibility: 10mi
Dew Point: 43°   Wind: 10mph
Humidity: 67%   Direction: 130°SE
Pressure: 29.68"   Gusts: NA
Location:  41.51°N, 83.15°W
Report Text: KPCW 232113Z AUTO 13009KT 10SM CLR 12/06 A2968 RMK AO2 PRESFR $
Loading
Personal Weather Stations






























Interactive Weather Map New forecast layout! Learn more

10-Day Weather Forecast

Advertisements
Track Severe Weather on mobile